Terminal Aerodrome Forecast
Issued by NWS

Home | Current Version | Previous Version | Text Only | Print | Product List | Glossary Off
Versions: 1 2 3 4 5 6 7 8 9 10 11 12 13 14 15

057
FTUS43 KABR 212328
TAFPIR
TAF
KPIR 212328Z 2200/2224 VRB05KT P6SM BKN200
     FM220100 VRB05KT P6SM VCTS SCT100CB
     FM222000 32012KT P6SM FEW200=

USA.gov is the U.S. government's official web portal to all federal, state and local government web resources and services.